createdAt,value
2022-09-22T00:02:27.604Z,10.18
2022-09-22T00:05:15.039Z,10.30
2022-09-22T00:08:02.261Z,7.82
2022-09-22T00:11:01.276Z,11.98
2022-09-22T00:13:54.481Z,9.40
2022-09-22T00:16:47.954Z,9.27
2022-09-22T00:19:37.311Z,7.15
2022-09-22T00:22:24.719Z,7.75
2022-09-22T00:25:11.875Z,6.47
2022-09-22T00:27:59.086Z,9.57
2022-09-22T00:30:47.143Z,10.15
2022-09-22T00:33:34.687Z,8.93
2022-09-22T00:36:26.359Z,9.15
2022-09-22T00:39:14.486Z,6.43
2022-09-22T00:42:01.562Z,6.03
2022-09-22T00:44:48.677Z,8.00
2022-09-22T00:47:39.800Z,7.90
2022-09-22T00:50:27.153Z,7.80
2022-09-22T00:53:17.057Z,8.80
2022-09-22T00:56:28.214Z,8.65
2022-09-22T00:59:20.184Z,8.68
2022-09-22T01:02:07.820Z,8.73
2022-09-22T01:04:54.944Z,8.35
2022-09-22T01:07:43.102Z,9.27
2022-09-22T01:10:30.322Z,8.68
2022-09-22T01:13:35.023Z,12.70
2022-09-22T01:16:25.177Z,10.50
2022-09-22T01:19:33.782Z,8.97
2022-09-22T01:22:33.061Z,9.90
2022-09-22T01:25:26.140Z,10.85
2022-09-22T01:28:37.859Z,11.88
2022-09-22T01:31:57.742Z,10.55
2022-09-22T01:34:44.969Z,11.88
2022-09-22T01:37:35.025Z,11.57
2022-09-22T01:40:33.420Z,12.80
2022-09-22T01:43:36.480Z,12.32
2022-09-22T01:46:35.602Z,11.20
2022-09-22T01:49:25.033Z,10.98
2022-09-22T01:52:18.703Z,13.65
2022-09-22T01:55:08.871Z,11.93
2022-09-22T01:58:00.521Z,10.30
2022-09-22T02:00:53.284Z,12.18
2022-09-22T02:03:49.537Z,14.63
2022-09-22T02:06:52.434Z,15.77
2022-09-22T02:09:42.196Z,19.50
2022-09-22T02:12:29.756Z,16.88
2022-09-22T02:15:35.591Z,10.68
2022-09-22T02:18:26.539Z,10.13
2022-09-22T02:21:15.127Z,10.00
2022-09-22T02:24:02.587Z,11.32
2022-09-22T02:26:50.335Z,10.70
2022-09-22T02:29:40.822Z,11.25
2022-09-22T02:32:29.858Z,15.38
2022-09-22T02:35:17.807Z,18.02
2022-09-22T02:38:15.719Z,20.80
2022-09-22T02:41:20.972Z,21.70
2022-09-22T02:44:36.513Z,20.58
2022-09-22T02:47:32.407Z,20.80
2022-09-22T02:50:22.531Z,23.10
2022-09-22T02:53:16.010Z,22.55
2022-09-22T02:56:04.441Z,21.80
2022-09-22T02:58:56.280Z,19.90
2022-09-22T03:01:45.525Z,21.13
2022-09-22T03:04:32.770Z,18.77
2022-09-22T03:07:19.878Z,18.13
2022-09-22T03:10:08.020Z,20.98
2022-09-22T03:13:15.447Z,17.95
2022-09-22T03:16:03.996Z,13.68
2022-09-22T03:18:51.204Z,18.23
2022-09-22T03:21:38.283Z,19.77
2022-09-22T03:24:25.364Z,19.58
2022-09-22T03:27:12.410Z,19.90
2022-09-22T03:30:00.675Z,22.35
2022-09-22T03:32:47.908Z,17.45
2022-09-22T03:35:35.380Z,12.02
2022-09-22T03:38:22.808Z,16.23
2022-09-22T03:41:10.383Z,11.48
2022-09-22T03:43:58.591Z,10.32
2022-09-22T03:46:45.648Z,12.35
2022-09-22T04:01:26.865Z,11.43
2022-09-22T04:04:14.078Z,12.43
2022-09-22T04:07:06.897Z,10.45
2022-09-22T04:09:54.739Z,10.63
2022-09-22T04:12:41.862Z,20.02
2022-09-22T04:15:29.081Z,20.42
2022-09-22T04:18:16.579Z,14.50
2022-09-22T04:21:03.822Z,17.80
2022-09-22T04:23:50.991Z,14.88
2022-09-22T04:26:47.586Z,11.70
2022-09-22T04:29:43.975Z,14.45
2022-09-22T04:32:31.071Z,13.43
2022-09-22T04:35:18.191Z,13.13
2022-09-22T04:38:05.369Z,13.07
2022-09-22T04:40:52.960Z,13.10
2022-09-22T04:43:40.835Z,13.25
2022-09-22T04:46:28.070Z,12.35
2022-09-22T04:49:15.290Z,12.68
2022-09-22T04:52:02.816Z,13.80
2022-09-22T04:54:50.087Z,13.55
2022-09-22T04:57:37.360Z,12.30
2022-09-22T05:00:26.405Z,15.10
2022-09-22T05:03:18.622Z,11.85
2022-09-22T05:06:08.799Z,15.88
2022-09-22T05:08:56.749Z,13.82
2022-09-22T05:11:45.150Z,15.68
2022-09-22T05:14:33.463Z,12.27
2022-09-22T05:17:21.260Z,13.05
2022-09-22T05:20:08.629Z,16.15
2022-09-22T05:22:55.761Z,11.70
2022-09-22T05:25:44.167Z,11.45
2022-09-22T05:28:31.483Z,14.48
2022-09-22T05:31:18.948Z,11.57
2022-09-22T05:34:06.207Z,13.85
2022-09-22T05:36:53.289Z,17.02
2022-09-22T05:39:40.426Z,11.85
2022-09-22T05:42:27.551Z,11.63
2022-09-22T05:45:16.006Z,14.10
2022-09-22T05:48:03.218Z,14.20
2022-09-22T05:50:50.453Z,15.35
2022-09-22T05:53:37.670Z,14.07
2022-09-22T06:00:45.330Z,9.05
2022-09-22T06:03:32.631Z,7.47
2022-09-22T06:06:19.678Z,7.65
2022-09-22T06:09:06.933Z,9.95
2022-09-22T06:11:54.537Z,9.05
2022-09-22T06:14:41.944Z,8.48
2022-09-22T06:17:29.231Z,7.32
2022-09-22T06:20:17.202Z,5.80
2022-09-22T06:23:04.437Z,6.80
2022-09-22T06:25:57.829Z,4.38
2022-09-22T06:28:44.881Z,4.22
2022-09-22T06:31:32.103Z,5.50
2022-09-22T06:34:19.347Z,4.13
2022-09-22T06:37:10.004Z,5.20
2022-09-22T06:39:57.163Z,4.38
2022-09-22T06:42:44.239Z,4.65
2022-09-22T06:45:32.157Z,4.45
2022-09-22T06:48:23.698Z,4.13
2022-09-22T06:51:13.598Z,4.50
2022-09-22T06:54:04.226Z,3.90
2022-09-22T06:56:51.391Z,3.38
2022-09-22T06:59:39.145Z,5.18
2022-09-22T07:02:28.163Z,5.53
2022-09-22T07:05:18.588Z,5.15
2022-09-22T07:08:06.061Z,3.75
2022-09-22T07:11:04.198Z,3.90
2022-09-22T07:13:53.815Z,4.03
2022-09-22T07:16:41.159Z,4.10
2022-09-22T07:19:30.716Z,4.38
2022-09-22T07:22:20.404Z,6.18
2022-09-22T07:25:09.964Z,4.10
2022-09-22T07:27:57.761Z,4.07
2022-09-22T07:30:47.113Z,6.57
2022-09-22T07:33:35.560Z,3.42
2022-09-22T07:36:26.238Z,3.95
2022-09-22T07:39:13.372Z,4.32
2022-09-22T07:42:00.709Z,2.97
2022-09-22T07:45:06.232Z,7.07
2022-09-22T07:48:11.957Z,4.25
2022-09-22T07:51:00.115Z,5.13
2022-09-22T07:54:02.554Z,3.00
2022-09-22T07:56:51.935Z,2.67
2022-09-22T07:59:42.032Z,3.58
2022-09-22T08:02:29.372Z,3.83
2022-09-22T08:05:16.662Z,2.88
2022-09-22T08:08:05.944Z,2.50
2022-09-22T08:10:53.114Z,2.88
2022-09-22T08:14:00.225Z,2.70
2022-09-22T08:16:48.926Z,7.15
2022-09-22T08:19:37.466Z,3.30
2022-09-22T08:22:24.718Z,4.20
2022-09-22T08:25:12.955Z,2.35
2022-09-22T08:28:02.027Z,4.07
2022-09-22T08:30:49.686Z,3.72
2022-09-22T08:33:36.986Z,2.58
2022-09-22T08:36:27.814Z,2.20
2022-09-22T08:39:16.452Z,3.88
2022-09-22T08:42:13.909Z,3.25
2022-09-22T08:45:10.724Z,2.92
2022-09-22T08:48:24.536Z,1.70
2022-09-22T08:51:53.190Z,3.58
2022-09-22T08:54:40.572Z,2.53
2022-09-22T08:57:56.397Z,3.00
2022-09-22T09:01:24.934Z,2.00
2022-09-22T09:04:48.247Z,4.05
2022-09-22T09:08:12.987Z,4.57
2022-09-22T09:11:10.657Z,1.92
2022-09-22T09:14:30.641Z,5.33
2022-09-22T09:17:25.783Z,2.67
2022-09-22T09:20:19.854Z,2.05
2022-09-22T09:26:39.254Z,2.13
2022-09-22T09:29:34.134Z,2.90
2022-09-22T09:32:39.929Z,4.00
2022-09-22T09:35:39.736Z,2.47
2022-09-22T09:38:37.620Z,2.28
2022-09-22T09:41:34.075Z,4.03
2022-09-22T09:44:28.366Z,1.95
2022-09-22T09:47:51.702Z,3.55
2022-09-22T09:50:39.603Z,3.60
2022-09-22T09:53:42.222Z,3.47
2022-09-22T09:56:30.794Z,2.47
2022-09-22T09:59:46.648Z,2.08
2022-09-22T10:02:38.741Z,2.92
2022-09-22T10:05:27.222Z,2.83
2022-09-22T10:08:20.881Z,2.13
2022-09-22T10:11:09.814Z,3.03
2022-09-22T10:13:58.467Z,3.03
2022-09-22T10:16:52.191Z,1.70
2022-09-22T10:19:39.297Z,2.92
2022-09-22T10:22:28.118Z,3.28
2022-09-22T10:25:33.036Z,2.15
2022-09-22T10:28:21.691Z,1.73
2022-09-22T10:31:24.919Z,1.88
2022-09-22T10:34:36.727Z,2.30
2022-09-22T10:37:27.746Z,2.58
2022-09-22T10:40:16.653Z,2.40
2022-09-22T10:43:05.048Z,3.05
2022-09-22T10:46:12.123Z,3.35
2022-09-22T10:49:21.348Z,3.92
2022-09-22T10:52:08.528Z,2.22
2022-09-22T10:55:08.964Z,3.63
2022-09-22T10:58:07.062Z,2.78
2022-09-22T11:01:06.721Z,2.00
2022-09-22T11:04:32.810Z,2.22
2022-09-22T11:07:47.833Z,2.78
2022-09-22T11:11:07.287Z,2.85
2022-09-22T11:14:15.691Z,3.00
2022-09-22T11:17:16.038Z,1.77
2022-09-22T11:20:27.632Z,5.20
2022-09-22T11:23:49.715Z,4.60
2022-09-22T11:26:48.937Z,1.70
2022-09-22T11:29:50.643Z,2.40
2022-09-22T11:33:05.024Z,2.67
2022-09-22T11:36:07.131Z,3.50
2022-09-22T11:39:37.736Z,2.85
2022-09-22T11:42:47.680Z,1.92
2022-09-22T11:45:54.996Z,2.93
2022-09-22T11:49:07.389Z,2.38
2022-09-22T11:52:24.612Z,2.60
2022-09-22T11:55:33.147Z,1.55
2022-09-22T11:58:25.933Z,1.80
2022-09-22T12:01:24.242Z,3.15
2022-09-22T12:04:42.283Z,1.63
2022-09-22T12:07:49.066Z,1.52
2022-09-22T12:10:39.808Z,2.10
2022-09-22T12:13:29.645Z,1.95
2022-09-22T12:16:45.352Z,1.73
2022-09-22T12:20:05.574Z,1.52
2022-09-22T12:23:13.436Z,1.48
2022-09-22T12:26:06.112Z,2.60
2022-09-22T12:28:53.894Z,2.95
2022-09-22T12:31:43.937Z,2.05
2022-09-22T12:34:31.288Z,2.28
2022-09-22T12:37:21.447Z,1.58
2022-09-22T12:40:14.827Z,1.42
2022-09-22T12:43:02.028Z,4.03
2022-09-22T12:45:51.688Z,1.70
2022-09-22T12:48:38.891Z,3.17
2022-09-22T12:51:26.015Z,2.50
2022-09-22T12:54:22.351Z,1.55
2022-09-22T12:57:09.510Z,1.27
2022-09-22T13:00:07.614Z,2.13
2022-09-22T13:02:56.693Z,1.60
2022-09-22T13:05:47.032Z,1.05
2022-09-22T13:08:35.106Z,1.45
2022-09-22T13:11:59.899Z,1.58
2022-09-22T13:14:57.053Z,2.38
2022-09-22T13:17:47.690Z,2.00
2022-09-22T13:20:35.486Z,2.15
2022-09-22T13:23:22.606Z,2.13
2022-09-22T13:26:13.660Z,2.10
2022-09-22T13:31:58.668Z,2.25
2022-09-22T13:34:45.822Z,1.10
2022-09-22T13:37:33.499Z,1.55
2022-09-22T13:40:25.246Z,1.73
2022-09-22T13:43:23.332Z,5.60
2022-09-22T13:46:38.302Z,3.17
2022-09-22T13:49:48.127Z,1.67
2022-09-22T13:52:38.349Z,1.80
2022-09-22T13:55:33.423Z,2.20
2022-09-22T13:58:35.414Z,2.45
2022-09-22T14:01:26.283Z,0.82
2022-09-22T14:04:24.169Z,3.45
2022-09-22T14:07:11.941Z,1.90
2022-09-22T14:10:01.849Z,2.35
2022-09-22T14:12:49.216Z,2.30
2022-09-22T14:15:43.572Z,3.42
2022-09-22T14:18:31.294Z,1.52
2022-09-22T14:21:19.208Z,1.13
2022-09-22T14:24:06.945Z,1.77
2022-09-22T14:27:06.025Z,3.65
2022-09-22T14:29:55.475Z,2.03
2022-09-22T14:32:49.108Z,2.47
2022-09-22T14:35:37.387Z,2.25
2022-09-22T14:38:24.991Z,3.15
2022-09-22T14:41:25.370Z,1.95
2022-09-22T14:44:35.101Z,2.83
2022-09-22T14:47:30.480Z,2.42
2022-09-22T14:50:37.273Z,1.67
2022-09-22T14:53:28.938Z,3.03
2022-09-22T14:56:28.210Z,6.15
2022-09-22T14:59:36.614Z,2.35
2022-09-22T15:02:33.501Z,4.90
2022-09-22T15:05:29.980Z,2.05
2022-09-22T15:08:27.644Z,1.40
2022-09-22T15:11:16.441Z,1.88
2022-09-22T15:14:36.936Z,2.38
2022-09-22T15:17:58.440Z,1.45
2022-09-22T15:20:50.312Z,1.23
2022-09-22T15:23:47.530Z,1.83
2022-09-22T15:26:34.649Z,2.22
2022-09-22T15:29:21.770Z,4.97
2022-09-22T15:32:09.055Z,4.20
2022-09-22T15:34:58.307Z,2.08
2022-09-22T15:37:46.970Z,3.13
2022-09-22T15:40:34.618Z,1.42
2022-09-22T15:43:23.422Z,2.67
2022-09-22T15:46:33.679Z,1.63
2022-09-22T15:49:26.029Z,1.85
2022-09-22T15:52:13.187Z,1.98
2022-09-22T15:55:00.833Z,1.80
2022-09-22T15:57:50.541Z,2.95
2022-09-22T16:00:38.875Z,3.38
2022-09-22T16:03:30.641Z,3.15
2022-09-22T16:06:18.320Z,1.60
2022-09-22T16:09:07.196Z,2.17
2022-09-22T16:11:55.856Z,2.63
2022-09-22T16:14:42.983Z,1.88
2022-09-22T16:17:30.122Z,3.55
2022-09-22T16:20:17.574Z,2.20
2022-09-22T16:23:06.567Z,2.75
2022-09-22T16:25:53.939Z,1.80
2022-09-22T16:28:41.726Z,3.17
2022-09-22T16:31:29.206Z,2.97
2022-09-22T16:34:16.461Z,2.97
2022-09-22T16:37:03.785Z,3.97
2022-09-22T16:39:50.884Z,4.78
2022-09-22T16:42:39.738Z,2.10
2022-09-22T16:45:45.404Z,2.25
2022-09-22T16:48:33.403Z,2.42
2022-09-22T16:51:20.897Z,2.67
2022-09-22T16:54:13.195Z,2.33
2022-09-22T16:57:00.575Z,3.95
2022-09-22T16:59:47.771Z,2.40
2022-09-22T17:02:34.918Z,3.40
2022-09-22T17:05:22.150Z,4.78
2022-09-22T17:08:09.392Z,2.28
2022-09-22T17:10:56.663Z,3.10
2022-09-22T17:13:44.511Z,2.15
2022-09-22T17:16:34.381Z,2.17
2022-09-22T17:19:27.535Z,1.83
2022-09-22T17:22:14.637Z,2.22
2022-09-22T17:25:01.844Z,1.65
2022-09-22T17:27:49.102Z,5.35
2022-09-22T17:30:36.336Z,6.32
2022-09-22T17:33:28.474Z,2.80
2022-09-22T17:36:23.835Z,2.67
2022-09-22T17:39:11.064Z,2.25
2022-09-22T17:41:58.518Z,3.15
2022-09-22T17:44:45.715Z,2.67
2022-09-22T17:47:51.387Z,2.75
2022-09-22T17:50:57.002Z,2.65
2022-09-22T17:54:02.859Z,2.20
2022-09-22T17:56:49.953Z,2.55
2022-09-22T17:59:38.280Z,2.33
2022-09-22T18:02:36.943Z,4.50
2022-09-22T18:05:26.604Z,6.28
2022-09-22T18:08:14.085Z,3.25
2022-09-22T18:11:01.562Z,3.03
2022-09-22T18:13:50.741Z,3.80
2022-09-22T18:16:38.576Z,3.47
2022-09-22T18:19:27.731Z,2.88
2022-09-22T18:22:21.155Z,3.40
2022-09-22T18:25:10.419Z,2.80
2022-09-22T18:27:58.129Z,2.58
2022-09-22T18:30:45.503Z,3.67
2022-09-22T18:33:32.660Z,3.53
2022-09-22T18:36:19.780Z,5.13
2022-09-22T18:39:07.547Z,3.35
2022-09-22T18:41:55.373Z,2.88
2022-09-22T18:44:42.534Z,5.40
2022-09-22T18:47:29.691Z,3.17
2022-09-22T18:50:17.030Z,2.35
2022-09-22T18:53:04.172Z,3.17
2022-09-22T18:55:52.822Z,3.95
2022-09-22T18:58:39.952Z,3.05
2022-09-22T19:01:27.445Z,4.35
2022-09-22T19:04:17.669Z,2.78
2022-09-22T19:07:23.696Z,3.58
2022-09-22T19:10:15.951Z,2.50
2022-09-22T19:13:04.178Z,4.30
2022-09-22T19:15:55.072Z,3.33
2022-09-22T19:18:44.579Z,3.17
2022-09-22T19:21:33.962Z,3.85
2022-09-22T19:24:23.160Z,4.25
2022-09-22T19:27:12.566Z,3.17
2022-09-22T19:29:59.672Z,3.50
2022-09-22T19:32:46.862Z,3.60
2022-09-22T19:35:38.940Z,5.72
2022-09-22T19:38:27.025Z,4.20
2022-09-22T19:41:14.147Z,3.63
2022-09-22T19:44:02.091Z,6.68
2022-09-22T19:46:50.175Z,3.88
2022-09-22T19:49:37.339Z,3.45
2022-09-22T19:52:24.602Z,3.25
2022-09-22T19:55:11.883Z,3.20
2022-09-22T19:57:59.058Z,4.00
2022-09-22T20:00:47.209Z,4.22
2022-09-22T20:03:34.456Z,4.82
2022-09-22T20:06:22.476Z,4.53
2022-09-22T20:09:09.927Z,4.28
2022-09-22T20:11:57.194Z,3.92
2022-09-22T20:14:44.603Z,4.95
2022-09-22T20:17:31.846Z,5.68
2022-09-22T20:20:21.667Z,3.47
2022-09-22T20:23:09.189Z,3.00
2022-09-22T20:25:56.427Z,5.20
2022-09-22T20:28:43.508Z,3.45
2022-09-22T20:31:31.150Z,3.53
2022-09-22T20:34:18.335Z,4.47
2022-09-22T20:37:05.418Z,5.43
2022-09-22T20:39:53.103Z,4.03
2022-09-22T20:42:40.513Z,5.63
2022-09-22T20:45:28.167Z,3.60
2022-09-22T20:48:18.557Z,5.30
2022-09-22T20:51:06.054Z,8.73
2022-09-22T20:53:53.169Z,3.65
2022-09-22T20:56:42.842Z,5.18
2022-09-22T20:59:30.221Z,4.00
2022-09-22T21:02:17.442Z,3.97
2022-09-22T21:05:04.897Z,3.80
2022-09-22T21:08:11.972Z,4.00
2022-09-22T21:10:59.195Z,6.10
2022-09-22T21:13:46.460Z,6.43
2022-09-22T21:16:35.885Z,4.07
2022-09-22T21:19:23.080Z,8.15
2022-09-22T21:22:10.490Z,4.47
2022-09-22T21:24:57.542Z,4.40
2022-09-22T21:27:45.259Z,4.28
2022-09-22T21:30:32.345Z,3.78
2022-09-22T21:33:19.384Z,4.15
2022-09-22T21:36:13.956Z,5.13
2022-09-22T21:39:01.106Z,4.22
2022-09-22T21:41:48.630Z,7.80
2022-09-22T21:44:35.730Z,3.78
2022-09-22T21:47:22.771Z,5.22
2022-09-22T21:50:10.055Z,5.72
2022-09-22T21:52:57.258Z,6.57
2022-09-22T21:55:44.279Z,4.00
2022-09-22T21:58:34.679Z,5.43
2022-09-22T22:01:27.893Z,4.60
2022-09-22T22:04:16.294Z,8.63
2022-09-22T22:07:03.513Z,3.70
2022-09-22T22:09:50.630Z,4.90
2022-09-22T22:12:37.728Z,3.78
2022-09-22T22:15:24.786Z,5.38
2022-09-22T22:18:11.864Z,6.28
2022-09-22T22:21:05.226Z,5.18
2022-09-22T22:23:54.925Z,4.70
2022-09-22T22:26:42.863Z,5.05
2022-09-22T22:29:34.659Z,6.55
2022-09-22T22:32:22.018Z,3.53
2022-09-22T22:35:09.606Z,5.28
2022-09-22T22:37:56.687Z,4.10
2022-09-22T22:40:46.297Z,4.72
2022-09-22T22:43:33.658Z,3.85
2022-09-22T22:46:20.924Z,4.00
2022-09-22T22:49:08.230Z,4.43
2022-09-22T22:51:55.406Z,3.42
2022-09-22T22:54:42.534Z,6.10
2022-09-22T22:57:29.714Z,4.10
2022-09-22T23:00:17.001Z,4.07
2022-09-22T23:03:04.652Z,4.95
2022-09-22T23:06:00.090Z,4.10
2022-09-22T23:08:47.395Z,5.32
2022-09-22T23:11:39.991Z,4.00
2022-09-22T23:14:27.188Z,4.72
2022-09-22T23:17:15.283Z,4.68
2022-09-22T23:20:04.964Z,4.60
2022-09-22T23:22:52.149Z,3.65
2022-09-22T23:25:39.239Z,3.75
2022-09-22T23:28:27.011Z,5.07
2022-09-22T23:31:16.701Z,5.95
2022-09-22T23:34:03.832Z,4.55
2022-09-22T23:36:50.943Z,3.92
2022-09-22T23:39:38.081Z,5.13
2022-09-22T23:42:25.832Z,4.05
2022-09-22T23:45:13.179Z,4.43
2022-09-22T23:48:00.214Z,6.90
2022-09-22T23:50:49.278Z,3.67
2022-09-22T23:53:37.255Z,4.95
2022-09-22T23:56:24.850Z,4.75
2022-09-22T23:59:11.920Z,4.57
